Time;durP1;ratioP1;P1;durP2;ratioP2;P2;SDS_P1;SDS_P2;PMS_P1;PMS_P2;Temp;Humidity;BMP_temperature;BMP_pressure;BME280_temperature;BME280_humidity;BME280_pressure;Samples;Min_cycle;Max_cycle;Signal;HPM_P1;HPM_P2
2021/07/04 00:00:20;;;;;;;16.90;15.23;;;21.20;99.90;;;;;;5054582;28;20542;-83
2021/07/04 00:02:46;;;;;;;16.53;15.13;;;21.30;99.90;;;;;;5037444;28;20614;-83
2021/07/04 00:05:15;;;;;;;17.23;15.63;;;21.30;99.90;;;;;;5052521;28;20448;-83
2021/07/04 00:07:42;;;;;;;18.13;16.60;;;21.30;99.90;;;;;;5043299;28;20423;-83
2021/07/04 00:10:10;;;;;;;18.13;16.63;;;21.20;99.90;;;;;;5034558;28;20512;-83
2021/07/04 00:12:37;;;;;;;18.10;16.50;;;21.30;99.90;;;;;;5034651;28;20895;-82
2021/07/04 00:15:09;;;;;;;17.57;15.73;;;21.30;99.90;;;;;;5035621;28;20427;-82
2021/07/04 00:17:36;;;;;;;16.93;15.63;;;21.20;99.90;;;;;;5034224;28;20435;-83
2021/07/04 00:20:06;;;;;;;18.10;16.50;;;21.00;99.90;;;;;;5033222;28;20413;-83
2021/07/04 00:22:32;;;;;;;17.10;15.40;;;21.00;99.90;;;;;;5033861;28;20626;-84
2021/07/04 00:24:58;;;;;;;17.73;16.03;;;21.00;99.90;;;;;;5034961;28;20489;-84
2021/07/04 00:27:23;;;;;;;17.43;16.07;;;20.90;99.90;;;;;;5033976;28;20247;-83
2021/07/04 00:29:49;;;;;;;17.70;16.20;;;21.00;99.90;;;;;;5034742;28;20274;-83
2021/07/04 00:32:15;;;;;;;16.80;15.40;;;20.90;99.90;;;;;;5033944;28;20186;-83
2021/07/04 00:34:41;;;;;;;17.67;16.07;;;20.90;99.90;;;;;;5034602;28;20233;-83
2021/07/04 00:37:07;;;;;;;17.10;15.60;;;20.90;99.90;;;;;;5033949;28;20420;-84
2021/07/04 00:39:32;;;;;;;17.83;16.47;;;21.00;99.90;;;;;;5033992;28;20262;-82
2021/07/04 00:41:58;;;;;;;16.63;15.33;;;21.00;99.90;;;;;;5033617;28;20202;-84
2021/07/04 00:44:24;;;;;;;17.43;16.03;;;21.00;99.90;;;;;;5035415;28;20565;-82
2021/07/04 00:46:49;;;;;;;17.23;15.93;;;21.00;99.90;;;;;;5055969;28;20213;-83
2021/07/04 00:49:15;;;;;;;16.67;15.37;;;21.00;99.90;;;;;;5056815;28;20185;-83
2021/07/04 00:51:42;;;;;;;15.80;14.43;;;21.00;99.90;;;;;;5041199;28;20269;-83
2021/07/04 00:54:08;;;;;;;15.47;14.17;;;21.00;99.90;;;;;;5059435;28;20236;-83
2021/07/04 00:56:34;;;;;;;16.60;15.20;;;21.00;99.90;;;;;;5078633;28;20764;-83
2021/07/04 00:58:59;;;;;;;16.30;14.97;;;21.00;99.90;;;;;;5077874;28;20222;-83
2021/07/04 01:01:25;;;;;;;16.53;15.23;;;21.00;99.90;;;;;;5079230;28;20181;-82
2021/07/04 01:03:51;;;;;;;16.10;14.63;;;21.00;99.90;;;;;;5078122;28;20180;-82
2021/07/04 01:06:17;;;;;;;15.90;14.40;;;21.00;99.90;;;;;;5078713;28;20262;-83
2021/07/04 01:08:43;;;;;;;16.50;15.20;;;21.00;99.90;;;;;;5059763;28;20203;-83
2021/07/04 01:11:08;;;;;;;17.13;15.63;;;21.00;99.90;;;;;;5078543;28;20410;-82
2021/07/04 01:13:34;;;;;;;17.57;15.93;;;21.00;99.90;;;;;;5078487;28;20291;-82
2021/07/04 01:16:01;;;;;;;17.67;16.17;;;21.00;99.90;;;;;;5076347;28;20291;-83
2021/07/04 01:18:27;;;;;;;16.37;15.07;;;21.00;99.90;;;;;;5077286;28;20972;-83
2021/07/04 01:20:53;;;;;;;15.80;14.50;;;21.00;99.90;;;;;;5077126;28;20513;-82
2021/07/04 01:23:22;;;;;;;17.77;16.27;;;20.90;99.90;;;;;;5076879;28;20683;-83
2021/07/04 01:25:52;;;;;;;17.37;15.87;;;20.90;99.90;;;;;;5076401;28;20419;-83
2021/07/04 01:28:19;;;;;;;17.63;16.13;;;20.90;99.90;;;;;;5059917;28;20419;-82
2021/07/04 01:30:47;;;;;;;18.00;16.40;;;20.80;99.90;;;;;;5061632;28;20457;-83
2021/07/04 01:33:13;;;;;;;16.67;15.27;;;20.80;99.90;;;;;;5060398;28;20486;-83
2021/07/04 01:35:40;;;;;;;18.17;16.60;;;20.80;99.90;;;;;;5078308;28;20411;-82
2021/07/04 01:38:06;;;;;;;17.43;15.83;;;20.80;99.90;;;;;;5078814;28;20189;-82
2021/07/04 01:40:33;;;;;;;17.23;15.73;;;20.70;99.90;;;;;;5061428;28;20795;-84
2021/07/04 01:43:01;;;;;;;16.93;15.53;;;20.70;99.90;;;;;;5079550;28;20443;-83
2021/07/04 01:45:27;;;;;;;17.83;16.13;;;20.70;99.90;;;;;;5070703;28;20460;-84
2021/07/04 01:47:55;;;;;;;18.20;16.70;;;20.70;99.90;;;;;;5058738;28;20942;-84
2021/07/04 01:50:27;;;;;;;19.70;18.00;;;20.80;99.90;;;;;;5058856;28;20458;-84
2021/07/04 01:52:53;;;;;;;16.97;15.57;;;20.70;99.90;;;;;;5059139;28;20526;-84
2021/07/04 01:55:20;;;;;;;19.30;17.60;;;20.80;99.90;;;;;;5039650;28;20400;-83
2021/07/04 01:57:47;;;;;;;18.03;16.53;;;20.80;99.90;;;;;;5041154;28;20834;-83
2021/07/04 02:00:18;;;;;;;17.73;16.23;;;20.70;99.90;;;;;;5058787;28;20409;-83
2021/07/04 02:02:49;;;;;;;18.27;16.57;;;20.60;99.90;;;;;;5056531;28;20844;-82
2021/07/04 02:05:15;;;;;;;16.57;15.07;;;20.60;99.90;;;;;;5054729;28;20423;-81
2021/07/04 02:07:43;;;;;;;17.53;16.10;;;20.70;99.90;;;;;;5057079;28;20841;-83
2021/07/04 02:10:32;;;;;;;19.20;17.30;;;20.70;99.90;;;;;;5038658;28;20408;-82
2021/07/04 02:12:58;;;;;;;17.03;15.50;;;20.60;99.90;;;;;;5056612;28;20456;-83
2021/07/04 02:15:27;;;;;;;18.30;16.70;;;20.60;99.90;;;;;;5055137;28;20970;-81
2021/07/04 02:17:53;;;;;;;18.10;16.40;;;20.60;99.90;;;;;;5055109;28;20409;-82
2021/07/04 02:20:34;;;;;;;20.20;18.17;;;20.60;99.90;;;;;;5037010;28;20771;-83
2021/07/04 02:23:07;;;;;;;19.77;18.07;;;20.60;99.90;;;;;;5036333;28;20424;-82
2021/07/04 02:25:35;;;;;;;18.23;16.53;;;20.60;99.90;;;;;;5054837;28;20416;-83
2021/07/04 02:28:00;;;;;;;18.20;16.70;;;20.60;99.90;;;;;;5054600;28;20416;-83
2021/07/04 02:30:27;;;;;;;19.83;18.13;;;20.60;99.90;;;;;;5054872;28;20415;-82
2021/07/04 02:32:53;;;;;;;19.50;17.80;;;20.50;99.90;;;;;;5054709;28;20205;-82
2021/07/04 02:35:19;;;;;;;20.80;18.87;;;20.40;99.90;;;;;;5037027;28;20906;-83
2021/07/04 02:37:45;;;;;;;19.53;17.90;;;20.40;99.90;;;;;;5036531;28;20507;-83
2021/07/04 02:40:11;;;;;;;18.80;17.30;;;20.40;99.90;;;;;;5054557;28;20503;-82
2021/07/04 02:42:36;;;;;;;19.77;17.77;;;20.40;99.90;;;;;;5055664;28;20508;-83
2021/07/04 02:48:58;;;;;;;19.47;17.77;;;20.50;99.90;;;;;;5054905;28;20168;-83
2021/07/04 02:51:23;;;;;;;19.93;18.07;;;20.40;99.90;;;;;;5054608;28;20430;-83
2021/07/04 02:53:49;;;;;;;20.37;18.27;;;20.40;99.90;;;;;;5054484;28;20928;-83
2021/07/04 02:56:15;;;;;;;19.70;18.10;;;20.40;99.90;;;;;;5054380;28;20227;-83
2021/07/04 02:58:41;;;;;;;19.03;17.43;;;20.40;99.90;;;;;;5053275;28;20205;-83
2021/07/04 03:01:06;;;;;;;19.63;17.90;;;20.50;99.90;;;;;;5054376;28;20178;-82
2021/07/04 03:03:32;;;;;;;19.50;17.90;;;20.40;99.90;;;;;;5036520;28;20240;-81
2021/07/04 03:05:58;;;;;;;19.07;17.47;;;20.40;99.90;;;;;;5053915;28;20256;-82
2021/07/04 03:08:25;;;;;;;19.77;18.07;;;20.30;99.90;;;;;;5053616;28;20424;-81
2021/07/04 03:10:51;;;;;;;19.37;17.73;;;20.30;99.90;;;;;;5054045;28;20173;-82
2021/07/04 03:13:17;;;;;;;20.33;18.67;;;20.30;99.90;;;;;;5053796;28;20570;-81
2021/07/04 03:15:42;;;;;;;20.13;18.43;;;20.20;99.90;;;;;;5034903;28;20178;-83
2021/07/04 03:18:08;;;;;;;20.47;18.77;;;20.10;99.90;;;;;;5015800;28;20650;-83
2021/07/04 03:20:34;;;;;;;19.53;17.93;;;20.10;99.90;;;;;;5016842;28;20241;-82
2021/07/04 03:23:00;;;;;;;20.53;18.80;;;20.20;99.90;;;;;;5034259;28;20280;-83
2021/07/04 03:25:25;;;;;;;19.77;18.10;;;20.20;99.90;;;;;;5015861;28;20182;-84
2021/07/04 03:27:52;;;;;;;20.37;18.70;;;20.20;99.90;;;;;;5016293;28;20178;-83
2021/07/04 03:30:22;;;;;;;20.40;18.70;;;20.30;99.90;;;;;;5016144;28;20182;-82
2021/07/04 03:32:49;;;;;;;20.10;18.30;;;20.30;99.90;;;;;;5016586;28;20461;-83
2021/07/04 03:35:16;;;;;;;19.97;18.27;;;20.30;99.90;;;;;;5049846;28;20424;-84
2021/07/04 03:37:42;;;;;;;20.07;18.37;;;20.40;99.90;;;;;;5053885;28;20416;-84
2021/07/04 03:40:11;;;;;;;18.50;16.97;;;20.40;99.90;;;;;;5053219;28;20770;-85
2021/07/04 03:42:38;;;;;;;20.00;18.10;;;20.40;99.90;;;;;;5053469;28;20761;-84
2021/07/04 03:45:05;;;;;;;19.03;17.23;;;20.40;99.90;;;;;;5053298;28;20451;-88
2021/07/04 03:47:31;;;;;;;18.97;17.47;;;20.40;99.90;;;;;;5053623;28;20401;-84
2021/07/04 03:49:58;;;;;;;19.40;17.50;;;20.50;99.90;;;;;;5035497;28;20919;-83
2021/07/04 03:52:24;;;;;;;19.10;17.50;;;20.50;99.90;;;;;;5034962;28;20464;-82
2021/07/04 03:54:49;;;;;;;18.17;16.67;;;20.50;99.90;;;;;;5034948;28;20420;-82
2021/07/04 03:57:21;;;;;;;18.87;17.10;;;20.50;99.90;;;;;;5052916;28;20184;-82
2021/07/04 04:00:01;;;;;;;20.17;18.40;;;20.50;99.90;;;;;;5053390;28;20176;-83
2021/07/04 04:02:27;;;;;;;20.03;18.33;;;20.50;99.90;;;;;;5035116;28;20885;-83
2021/07/04 04:04:54;;;;;;;18.50;16.90;;;20.50;99.90;;;;;;5053422;28;20401;-83
2021/07/04 04:07:20;;;;;;;18.67;17.07;;;20.60;99.90;;;;;;5054028;28;20424;-83
2021/07/04 04:09:48;;;;;;;18.47;16.87;;;20.60;99.90;;;;;;5034725;28;20459;-83
2021/07/04 04:12:14;;;;;;;19.50;17.60;;;20.50;99.90;;;;;;5035132;28;20496;-83
2021/07/04 04:14:40;;;;;;;18.27;16.87;;;20.60;99.90;;;;;;5035946;28;20486;-83
2021/07/04 04:17:06;;;;;;;18.90;17.40;;;20.60;99.90;;;;;;5035651;28;20958;-83
2021/07/04 04:19:32;;;;;;;19.60;18.10;;;20.60;99.90;;;;;;5035396;28;20416;-81
2021/07/04 04:21:59;;;;;;;17.40;16.00;;;20.60;99.90;;;;;;5051781;28;20462;-83
2021/07/04 04:24:25;;;;;;;19.07;17.50;;;20.60;99.90;;;;;;5035299;28;20420;-82
2021/07/04 04:26:51;;;;;;;19.07;17.47;;;20.60;99.90;;;;;;5053469;28;20488;-83
2021/07/04 04:29:17;;;;;;;19.30;17.67;;;20.60;99.90;;;;;;5052250;28;20176;-83
2021/07/04 04:31:43;;;;;;;19.57;17.97;;;20.60;99.90;;;;;;5052984;28;20185;-82
2021/07/04 04:34:09;;;;;;;18.77;17.17;;;20.60;99.90;;;;;;5052497;28;20206;-87
2021/07/04 04:36:34;;;;;;;18.97;17.47;;;20.60;99.90;;;;;;5035025;28;20420;-82
2021/07/04 04:39:00;;;;;;;19.10;17.50;;;20.60;99.90;;;;;;5051742;28;20536;-82
2021/07/04 04:41:26;;;;;;;19.30;17.40;;;20.60;99.90;;;;;;5052243;28;20170;-83
2021/07/04 04:43:51;;;;;;;18.47;16.87;;;20.60;99.90;;;;;;5052746;28;20181;-82
2021/07/04 04:46:17;;;;;;;17.47;16.00;;;20.60;99.90;;;;;;5051357;28;20229;-82
2021/07/04 04:48:43;;;;;;;18.53;16.93;;;20.60;99.90;;;;;;5052552;28;20189;-82
2021/07/04 04:51:09;;;;;;;20.27;18.43;;;20.60;99.90;;;;;;5034922;28;20170;-89
2021/07/04 04:53:35;;;;;;;18.37;16.77;;;20.60;99.90;;;;;;5052470;28;20460;-82
2021/07/04 04:56:00;;;;;;;20.10;18.20;;;20.60;99.90;;;;;;5052461;28;20205;-81
2021/07/04 04:58:26;;;;;;;19.27;17.57;;;20.70;99.90;;;;;;5034718;28;20185;-82
2021/07/04 05:00:52;;;;;;;18.97;17.37;;;20.70;99.90;;;;;;5050286;28;20177;-82
2021/07/04 05:03:18;;;;;;;19.43;17.67;;;20.70;99.90;;;;;;5032579;28;20626;-80
2021/07/04 05:05:43;;;;;;;20.13;18.40;;;20.70;99.90;;;;;;5015474;28;20270;-83
2021/07/04 05:08:09;;;;;;;20.13;18.40;;;20.70;99.90;;;;;;5015903;28;20641;-89
2021/07/04 05:10:35;;;;;;;21.00;18.00;;;20.70;99.90;;;;;;5022289;28;20257;-83
2021/07/04 05:13:01;;;;;;;20.47;18.60;;;20.80;99.90;;;;;;5052427;28;20210;-83
2021/07/04 05:15:26;;;;;;;20.67;18.83;;;20.80;99.90;;;;;;5051635;28;20174;-83
2021/07/04 05:17:52;;;;;;;21.20;19.40;;;20.80;99.90;;;;;;5052238;28;20593;-83
2021/07/04 05:20:18;;;;;;;20.33;18.33;;;20.80;99.90;;;;;;5051565;28;20645;-83
2021/07/04 05:22:44;;;;;;;20.97;19.00;;;20.80;99.90;;;;;;5051733;28;20185;-83
2021/07/04 05:25:10;;;;;;;21.97;20.17;;;20.80;99.90;;;;;;5050948;28;20170;-89
2021/07/04 05:27:36;;;;;;;20.60;18.60;;;20.90;99.90;;;;;;5052083;28;20181;-83
2021/07/04 05:30:03;;;;;;;20.53;18.87;;;20.90;99.90;;;;;;5036637;28;20424;-82
2021/07/04 05:32:29;;;;;;;21.80;20.00;;;20.90;99.90;;;;;;5055589;28;20202;-82
2021/07/04 05:34:55;;;;;;;20.73;18.97;;;20.90;99.90;;;;;;5055550;28;20426;-82
2021/07/04 05:37:21;;;;;;;23.37;21.27;;;20.90;99.90;;;;;;5037011;28;20181;-83
2021/07/04 05:39:47;;;;;;;20.30;18.50;;;20.90;99.90;;;;;;5037687;28;20443;-82
2021/07/04 05:42:12;;;;;;;19.67;18.07;;;20.90;99.90;;;;;;5054908;28;20178;-87
2021/07/04 05:44:38;;;;;;;19.90;18.10;;;20.90;99.90;;;;;;5036884;28;20181;-83
2021/07/04 05:47:04;;;;;;;21.53;19.63;;;20.90;99.90;;;;;;5054774;28;20602;-83
2021/07/04 05:49:30;;;;;;;20.23;18.63;;;20.90;99.90;;;;;;5036316;28;20401;-82
2021/07/04 05:51:56;;;;;;;20.07;18.17;;;20.90;99.90;;;;;;5054620;28;20961;-83
2021/07/04 05:54:21;;;;;;;18.70;17.20;;;21.00;99.90;;;;;;5054281;28;20212;-83
2021/07/04 05:56:47;;;;;;;18.37;16.83;;;21.00;99.90;;;;;;5053404;28;20204;-83
2021/07/04 05:59:13;;;;;;;19.17;17.63;;;20.90;99.90;;;;;;5053939;28;20219;-84
2021/07/04 06:01:38;;;;;;;19.33;17.53;;;21.00;99.90;;;;;;5053359;28;20185;-83
2021/07/04 06:04:05;;;;;;;19.47;17.90;;;21.00;99.90;;;;;;5037136;28;20276;-83
2021/07/04 06:06:31;;;;;;;18.17;16.70;;;21.00;99.90;;;;;;5053595;28;20181;-83
2021/07/04 06:08:57;;;;;;;18.07;16.63;;;21.00;99.90;;;;;;5054896;28;20877;-83
2021/07/04 06:11:24;;;;;;;19.10;17.47;;;21.00;99.90;;;;;;5036816;28;20197;-82
2021/07/04 06:13:49;;;;;;;19.53;17.80;;;21.10;99.90;;;;;;5036410;28;20220;-82
2021/07/04 06:16:15;;;;;;;20.50;18.80;;;21.10;99.90;;;;;;5036437;28;20432;-83
2021/07/04 06:18:41;;;;;;;20.53;18.37;;;21.00;99.90;;;;;;5049053;28;20178;-80
2021/07/04 06:21:07;;;;;;;20.60;18.87;;;21.00;99.90;;;;;;5034322;28;20202;-80
2021/07/04 06:23:32;;;;;;;20.50;18.73;;;21.00;99.90;;;;;;5040424;28;20231;-80
2021/07/04 06:25:58;;;;;;;18.77;17.27;;;21.00;99.90;;;;;;5048537;28;20167;-83
2021/07/04 06:28:24;;;;;;;18.93;17.20;;;21.00;99.90;;;;;;5049749;28;20182;-83
2021/07/04 06:30:49;;;;;;;19.03;17.63;;;21.10;99.90;;;;;;5052929;28;20183;-83
2021/07/04 06:33:15;;;;;;;18.20;16.60;;;21.20;99.90;;;;;;5051012;28;20216;-89
2021/07/04 06:35:41;;;;;;;17.37;15.87;;;21.30;99.90;;;;;;5035493;28;20229;-82
2021/07/04 06:38:07;;;;;;;16.27;14.87;;;21.30;99.90;;;;;;5033978;28;20680;-81
2021/07/04 06:40:32;;;;;;;18.33;16.63;;;21.40;99.90;;;;;;5047091;28;20515;-82
2021/07/04 06:42:58;;;;;;;16.47;15.17;;;21.40;99.90;;;;;;5053515;28;20580;-82
2021/07/04 06:45:24;;;;;;;16.93;15.50;;;21.60;99.90;;;;;;5053434;28;20240;-82
2021/07/04 06:47:50;;;;;;;16.90;15.40;;;21.60;99.90;;;;;;5053879;28;20185;-82
2021/07/04 06:50:17;;;;;;;16.43;15.10;;;21.70;99.90;;;;;;5053434;28;20178;-83
2021/07/04 06:52:45;;;;;;;16.20;15.00;;;21.70;99.90;;;;;;5053360;28;20545;-83
2021/07/04 06:55:12;;;;;;;16.70;15.37;;;21.80;99.90;;;;;;5050541;28;20481;-82
2021/07/04 06:57:38;;;;;;;15.83;14.53;;;21.80;99.90;;;;;;5037661;28;20939;-82
2021/07/04 07:00:13;;;;;;;15.03;13.83;;;21.80;99.90;;;;;;5044812;28;20825;-82
2021/07/04 07:02:41;;;;;;;15.03;13.83;;;21.90;99.90;;;;;;5038060;28;20444;-82
2021/07/04 07:05:08;;;;;;;16.53;15.23;;;21.90;99.90;;;;;;5035283;28;20822;-82
2021/07/04 07:07:34;;;;;;;15.37;13.97;;;22.00;99.90;;;;;;5053142;28;20412;-82
2021/07/04 07:10:00;;;;;;;14.07;13.00;;;22.10;99.90;;;;;;5053877;28;20420;-81
2021/07/04 07:12:26;;;;;;;13.43;12.53;;;22.20;99.90;;;;;;5052909;28;20413;-81
2021/07/04 07:14:52;;;;;;;14.83;13.53;;;22.30;99.90;;;;;;5038287;28;20221;-81
2021/07/04 07:17:19;;;;;;;14.90;13.80;;;22.40;99.90;;;;;;5018960;28;20220;-82
2021/07/04 07:19:45;;;;;;;14.67;13.63;;;22.50;99.90;;;;;;5024475;28;20227;-81
2021/07/04 07:22:11;;;;;;;16.30;15.10;;;22.60;99.90;;;;;;5018644;28;20413;-80
2021/07/04 07:24:37;;;;;;;15.27;14.17;;;22.70;99.90;;;;;;5032954;28;20424;-81
2021/07/04 07:27:03;;;;;;;17.40;15.90;;;22.90;99.90;;;;;;5037542;28;20198;-81
2021/07/04 07:29:29;;;;;;;14.53;13.37;;;23.00;99.90;;;;;;5033999;28;20178;-81
2021/07/04 07:31:55;;;;;;;13.80;12.73;;;23.10;99.90;;;;;;5053360;28;20427;-81
2021/07/04 07:34:21;;;;;;;13.40;12.40;;;23.30;99.90;;;;;;5034755;28;20444;-81
2021/07/04 07:36:47;;;;;;;14.30;13.20;;;23.40;99.90;;;;;;5053336;28;20189;-81
2021/07/04 07:39:14;;;;;;;14.37;13.27;;;23.40;99.90;;;;;;5053202;28;20439;-80
2021/07/04 07:41:40;;;;;;;14.60;13.40;;;23.50;99.90;;;;;;5045823;28;20492;-81
2021/07/04 07:44:05;;;;;;;17.80;16.20;;;23.70;99.90;;;;;;5035795;28;20424;-81
2021/07/04 07:46:31;;;;;;;14.67;13.47;;;23.80;99.90;;;;;;5031529;28;20449;-79
2021/07/04 07:48:57;;;;;;;13.93;12.83;;;23.90;99.90;;;;;;5033041;28;20178;-80
2021/07/04 07:51:22;;;;;;;13.67;12.60;;;24.00;99.90;;;;;;5036973;28;20186;-86
2021/07/04 07:53:49;;;;;;;14.43;12.90;;;24.00;99.90;;;;;;5037874;28;20198;-80
2021/07/04 07:56:15;;;;;;;13.73;12.70;;;23.80;99.90;;;;;;5052605;28;20223;-81
2021/07/04 07:58:44;;;;;;;16.87;15.37;;;23.80;99.90;;;;;;5052160;28;21022;-80
2021/07/04 08:01:10;;;;;;;14.80;13.40;;;23.90;99.90;;;;;;5052500;28;20600;-81
2021/07/04 08:03:36;;;;;;;53.63;48.30;;;24.10;99.90;;;;;;5036596;28;20501;-80
2021/07/04 08:06:02;;;;;;;84.20;64.00;;;24.30;99.90;;;;;;5015790;28;20862;-80
2021/07/04 08:08:28;;;;;;;67.73;60.50;;;24.50;99.90;;;;;;5032372;28;20470;-81
2021/07/04 08:10:53;;;;;;;46.27;41.77;;;24.60;99.90;;;;;;5052768;28;20749;-80
2021/07/04 08:13:19;;;;;;;23.47;21.17;;;24.70;99.90;;;;;;5052829;28;20213;-88
2021/07/04 08:15:45;;;;;;;15.87;14.47;;;24.70;99.90;;;;;;5029178;28;20209;-79
2021/07/04 08:18:11;;;;;;;338.70;302.70;;;24.70;99.90;;;;;;5050643;28;20177;-81
2021/07/04 08:20:36;;;;;;;161.27;143.60;;;24.70;99.90;;;;;;5050934;28;20190;-81
2021/07/04 08:23:03;;;;;;;30.80;27.87;;;24.70;99.60;;;;;;5052036;28;20181;-80
2021/07/04 08:25:29;;;;;;;16.30;14.90;;;24.80;99.80;;;;;;5036582;28;20185;-80
2021/07/04 08:27:55;;;;;;;17.83;15.93;;;24.90;99.50;;;;;;5039073;28;20450;-80
2021/07/04 08:30:22;;;;;;;13.10;12.00;;;24.90;99.20;;;;;;5052555;28;20404;-90
2021/07/04 08:32:48;;;;;;;14.67;13.37;;;24.90;99.80;;;;;;5052713;28;20216;-81
2021/07/04 08:35:13;;;;;;;23.97;21.77;;;25.10;99.40;;;;;;5052585;28;20436;-79
2021/07/04 08:37:39;;;;;;;17.33;15.90;;;25.10;99.10;;;;;;5017755;28;20185;-79
2021/07/04 08:40:06;;;;;;;16.27;14.83;;;25.00;98.70;;;;;;5044247;28;20185;-80
2021/07/04 08:42:32;;;;;;;12.83;11.70;;;25.00;98.30;;;;;;5044823;28;20178;-81
2021/07/04 08:44:58;;;;;;;13.23;12.23;;;25.10;98.50;;;;;;5032627;28;20547;-80
2021/07/04 08:47:25;;;;;;;13.07;12.17;;;25.10;98.80;;;;;;5032745;28;20228;-81
2021/07/04 08:49:52;;;;;;;12.07;11.10;;;25.10;97.70;;;;;;5032927;28;20409;-80
2021/07/04 08:52:19;;;;;;;13.50;12.40;;;24.70;97.50;;;;;;5032611;28;20413;-81
2021/07/04 08:54:45;;;;;;;236.67;194.10;;;24.70;98.70;;;;;;5032623;28;20428;-81
2021/07/04 08:57:11;;;;;;;93.40;80.80;;;24.80;98.70;;;;;;5015109;28;20436;-80
2021/07/04 08:59:42;;;;;;;143.43;123.17;;;24.90;99.00;;;;;;5032668;28;20963;-81
2021/07/04 09:02:10;;;;;;;18.47;16.80;;;25.10;99.40;;;;;;5015577;28;20496;-81
2021/07/04 09:04:55;;;;;;;14.27;13.17;;;25.20;99.20;;;;;;5043010;28;20421;-77
2021/07/04 09:07:25;;;;;;;12.37;11.37;;;25.30;99.10;;;;;;5056453;28;20810;-82
2021/07/04 09:10:06;;;;;;;12.47;11.60;;;25.40;98.80;;;;;;5049137;28;20412;-81
2021/07/04 09:13:03;;;;;;;14.80;13.50;;;25.60;98.50;;;;;;5056405;28;20499;-81
2021/07/04 09:15:29;;;;;;;12.90;11.80;;;25.80;98.10;;;;;;5054720;28;20435;-81
2021/07/04 09:17:57;;;;;;;12.63;11.70;;;26.00;96.90;;;;;;5038729;28;20408;-81
2021/07/04 09:20:29;;;;;;;12.33;11.43;;;26.10;97.90;;;;;;5056243;28;20240;-82
2021/07/04 09:22:56;;;;;;;11.97;11.17;;;26.30;96.10;;;;;;5056054;28;20424;-81
2021/07/04 09:25:32;;;;;;;73.87;65.93;;;26.20;94.80;;;;;;5056425;28;20459;-81
2021/07/04 09:28:18;;;;;;;42.10;38.03;;;26.20;95.80;;;;;;5055508;28;20404;-81
2021/07/04 09:30:54;;;;;;;16.40;15.00;;;26.10;95.10;;;;;;5038731;28;20438;-81
2021/07/04 09:33:24;;;;;;;12.10;11.30;;;26.20;95.50;;;;;;5056289;28;20435;-81
2021/07/04 09:36:01;;;;;;;11.73;10.83;;;26.20;95.00;;;;;;5053581;28;20428;-81
2021/07/04 09:38:35;;;;;;;13.10;12.10;;;26.40;94.70;;;;;;5036093;28;20436;-80
2021/07/04 09:41:03;;;;;;;12.20;11.40;;;26.50;95.00;;;;;;5046534;28;20434;-81
2021/07/04 09:43:31;;;;;;;12.40;11.20;;;26.60;94.90;;;;;;5022625;28;20498;-81
2021/07/04 09:45:59;;;;;;;15.73;14.23;;;26.70;94.50;;;;;;5067382;28;20455;-81
2021/07/04 09:48:28;;;;;;;11.80;11.00;;;26.80;95.00;;;;;;5075831;28;20446;-86
2021/07/04 09:50:57;;;;;;;11.37;10.57;;;26.80;95.30;;;;;;5076170;28;20482;-81
2021/07/04 09:56:25;;;;;;;12.60;11.60;;;26.80;95.40;;;;;;5076206;28;20868;-81
2021/07/04 09:58:53;;;;;;;10.87;10.13;;;26.80;95.90;;;;;;5075916;28;20434;-82
2021/07/04 10:01:32;;;;;;;11.83;11.00;;;26.70;94.30;;;;;;5075914;28;20407;-81
2021/07/04 10:03:58;;;;;;;11.37;10.37;;;26.60;93.80;;;;;;5076142;28;20456;-80
2021/07/04 10:06:24;;;;;;;12.40;11.50;;;26.50;94.80;;;;;;5075998;28;20413;-81
2021/07/04 10:08:50;;;;;;;15.70;14.50;;;26.40;94.90;;;;;;5075821;28;20417;-81
2021/07/04 10:11:17;;;;;;;45.43;41.23;;;26.40;95.40;;;;;;5075835;28;20793;-81
2021/07/04 10:13:45;;;;;;;255.30;230.63;;;26.50;95.20;;;;;;5075212;28;20516;-81
2021/07/04 10:16:13;;;;;;;20.60;18.90;;;26.50;95.80;;;;;;5056863;28;20902;-81
2021/07/04 10:18:42;;;;;;;18.20;16.60;;;26.60;95.70;;;;;;5076015;28;20426;-81
2021/07/04 10:21:09;;;;;;;15.03;13.83;;;26.70;95.30;;;;;;5064733;28;20926;-81
2021/07/04 10:23:35;;;;;;;14.27;13.20;;;26.80;96.20;;;;;;5055811;28;20486;-82
2021/07/04 10:26:01;;;;;;;11.50;10.70;;;26.80;95.20;;;;;;5055845;28;20763;-81
2021/07/04 10:28:29;;;;;;;11.20;10.40;;;26.80;93.70;;;;;;5060454;28;20439;-84
2021/07/04 10:30:56;;;;;;;12.30;11.20;;;26.60;92.30;;;;;;5051123;28;20439;-87
2021/07/04 10:33:23;;;;;;;13.17;12.20;;;26.40;92.90;;;;;;5064897;28;20458;-85
2021/07/04 10:36:12;;;;;;;10.47;9.77;;;26.30;93.50;;;;;;5054592;28;21094;-85
2021/07/04 10:38:56;;;;;;;11.53;10.73;;;26.20;94.00;;;;;;5061468;28;20421;-86
2021/07/04 10:41:31;;;;;;;10.30;9.60;;;26.30;95.20;;;;;;5023463;28;20918;-86
2021/07/04 10:44:04;;;;;;;10.03;9.37;;;26.40;94.50;;;;;;5074317;28;20436;-85
2021/07/04 10:46:46;;;;;;;10.60;9.90;;;26.40;94.40;;;;;;5056559;28;20467;-82
2021/07/04 10:49:24;;;;;;;10.30;9.60;;;26.40;95.20;;;;;;5045215;28;20483;-85
2021/07/04 10:51:54;;;;;;;11.20;10.40;;;26.40;95.80;;;;;;5034705;28;20408;-84
2021/07/04 10:54:38;;;;;;;14.73;13.53;;;26.40;95.50;;;;;;5050794;28;20456;-85
2021/07/04 10:57:09;;;;;;;12.50;11.50;;;26.20;94.60;;;;;;5053534;28;20419;-84
2021/07/04 11:00:00;;;;;;;11.70;10.70;;;26.20;95.00;;;;;;5051412;28;20998;-84
2021/07/04 11:02:50;;;;;;;12.30;11.40;;;26.10;95.00;;;;;;5053909;28;20408;-85
2021/07/04 11:05:23;;;;;;;10.40;9.70;;;26.00;95.10;;;;;;5036042;28;20405;-84
2021/07/04 11:07:52;;;;;;;10.13;9.47;;;25.90;95.40;;;;;;5014877;28;20413;-84
2021/07/04 11:10:20;;;;;;;12.73;11.77;;;25.90;96.20;;;;;;5015814;28;20420;-84
2021/07/04 11:12:46;;;;;;;11.70;10.80;;;25.90;97.00;;;;;;5032311;28;20449;-84
2021/07/04 11:15:23;;;;;;;9.43;8.83;;;25.90;96.20;;;;;;5033106;28;20736;-84
2021/07/04 11:17:55;;;;;;;31.17;28.43;;;26.00;96.30;;;;;;5032498;28;20451;-83
2021/07/04 11:20:22;;;;;;;15.13;14.00;;;26.00;95.90;;;;;;5033172;28;20417;-84
2021/07/04 11:23:08;;;;;;;97.63;87.97;;;26.00;95.40;;;;;;5044329;28;20522;-84
2021/07/04 11:25:44;;;;;;;20.57;18.53;;;26.10;95.70;;;;;;5042517;28;20440;-84
2021/07/04 11:28:18;;;;;;;13.73;12.63;;;26.00;93.70;;;;;;5041473;28;20401;-84
2021/07/04 11:30:52;;;;;;;34.27;30.73;;;25.90;94.00;;;;;;5033523;28;20919;-84
2021/07/04 11:33:28;;;;;;;66.50;59.63;;;25.90;94.30;;;;;;5052794;28;20467;-85
2021/07/04 11:36:04;;;;;;;18.37;16.67;;;25.80;94.70;;;;;;5052242;28;20412;-80
2021/07/04 11:38:36;;;;;;;17.17;15.77;;;25.80;94.40;;;;;;5052379;28;20507;-85
2021/07/04 11:41:03;;;;;;;11.97;11.07;;;25.70;94.50;;;;;;5035064;28;20432;-86
2021/07/04 11:43:30;;;;;;;12.00;11.10;;;25.60;95.40;;;;;;5034866;28;20408;-85
2021/07/04 11:46:04;;;;;;;11.03;10.13;;;25.60;95.50;;;;;;5052102;28;21021;-88
2021/07/04 11:48:57;;;;;;;8.87;8.17;;;25.50;94.60;;;;;;5052751;28;20428;-81
2021/07/04 11:51:25;;;;;;;6.20;5.80;;;25.10;95.00;;;;;;5044438;28;20428;-80
2021/07/04 11:53:55;;;;;;;7.27;6.23;;;24.80;95.10;;;;;;5017289;28;20947;-87
2021/07/04 11:56:21;;;;;;;5.23;4.93;;;24.50;95.10;;;;;;5032493;28;20864;-80
2021/07/04 11:58:47;;;;;;;5.73;5.43;;;24.30;94.90;;;;;;5048699;28;20448;-80
2021/07/04 12:01:23;;;;;;;6.33;5.83;;;24.10;96.00;;;;;;5034515;28;20416;-81
2021/07/04 12:03:56;;;;;;;6.73;6.33;;;23.90;97.10;;;;;;5051240;28;20177;-81
2021/07/04 12:06:23;;;;;;;7.03;6.63;;;23.70;98.50;;;;;;5034449;28;20412;-81
2021/07/04 12:09:05;;;;;;;7.17;6.67;;;23.70;99.90;;;;;;5033664;28;20408;-80
2021/07/04 12:11:44;;;;;;;7.30;6.80;;;23.60;99.90;;;;;;5034348;28;20435;-86
2021/07/04 12:14:38;;;;;;;7.30;6.80;;;23.30;99.90;;;;;;5034682;28;20459;-82
2021/07/04 12:17:22;;;;;;;6.90;6.43;;;23.30;99.90;;;;;;5052178;28;20409;-80
2021/07/04 12:20:16;;;;;;;8.00;7.50;;;23.20;99.80;;;;;;5033596;28;20728;-80
2021/07/04 12:22:51;;;;;;;49.40;44.37;;;23.20;99.90;;;;;;5051185;28;20765;-80
2021/07/04 12:25:27;;;;;;;232.30;202.50;;;23.10;99.90;;;;;;5051787;28;20841;-79
2021/07/04 12:27:56;;;;;;;221.70;197.30;;;23.00;99.90;;;;;;5033570;28;20760;-79
2021/07/04 12:30:39;;;;;;;48.53;43.70;;;23.10;99.90;;;;;;5033997;28;20435;-79
2021/07/04 12:33:20;;;;;;;39.90;35.67;;;23.10;99.90;;;;;;5050791;28;20451;-80
2021/07/04 12:35:48;;;;;;;82.40;66.93;;;23.10;99.90;;;;;;5041231;28;20405;-80
2021/07/04 12:38:16;;;;;;;108.30;98.43;;;23.10;99.90;;;;;;5034005;28;20451;-79
2021/07/04 12:40:59;;;;;;;10.50;9.70;;;23.10;99.90;;;;;;5054461;28;20977;-88